sensor_id;sensor_type;location;lat;lon;timestamp;temperature;humidity
20246;DHT22;10281;54.406;18.556;2023-06-22T00:00:59;20.30;99.90
20246;DHT22;10281;54.406;18.556;2023-06-22T00:03:27;20.20;99.90
20246;DHT22;10281;54.406;18.556;2023-06-22T00:05:53;20.20;99.90
20246;DHT22;10281;54.406;18.556;2023-06-22T00:08:20;20.20;99.90
20246;DHT22;10281;54.406;18.556;2023-06-22T00:10:47;20.20;99.90
20246;DHT22;10281;54.406;18.556;2023-06-22T00:13:14;20.20;99.90
20246;DHT22;10281;54.406;18.556;2023-06-22T00:15:42;20.10;99.90
20246;DHT22;10281;54.406;18.556;2023-06-22T00:18:09;20.00;99.90
20246;DHT22;10281;54.406;18.556;2023-06-22T00:20:37;20.00;99.90
20246;DHT22;10281;54.406;18.556;2023-06-22T00:23:05;20.00;99.90
20246;DHT22;10281;54.406;18.556;2023-06-22T00:25:35;20.00;99.90
20246;DHT22;10281;54.406;18.556;2023-06-22T00:28:03;19.90;99.90
20246;DHT22;10281;54.406;18.556;2023-06-22T00:30:31;19.90;99.90
20246;DHT22;10281;54.406;18.556;2023-06-22T00:32:58;19.80;99.90
20246;DHT22;10281;54.406;18.556;2023-06-22T00:35:26;19.80;99.90
20246;DHT22;10281;54.406;18.556;2023-06-22T00:37:56;19.70;99.90
20246;DHT22;10281;54.406;18.556;2023-06-22T00:40:30;19.60;99.90
20246;DHT22;10281;54.406;18.556;2023-06-22T00:42:58;19.60;99.90
20246;DHT22;10281;54.406;18.556;2023-06-22T00:45:25;19.50;99.90
20246;DHT22;10281;54.406;18.556;2023-06-22T00:47:52;19.50;99.90
20246;DHT22;10281;54.406;18.556;2023-06-22T00:50:22;19.50;99.90
20246;DHT22;10281;54.406;18.556;2023-06-22T00:52:52;19.40;99.90
20246;DHT22;10281;54.406;18.556;2023-06-22T00:55:21;19.40;99.90
20246;DHT22;10281;54.406;18.556;2023-06-22T00:57:48;19.30;99.90
20246;DHT22;10281;54.406;18.556;2023-06-22T01:00:16;19.30;99.90
20246;DHT22;10281;54.406;18.556;2023-06-22T01:02:46;19.20;99.90
20246;DHT22;10281;54.406;18.556;2023-06-22T01:05:14;19.20;99.90
20246;DHT22;10281;54.406;18.556;2023-06-22T01:08:51;19.20;99.90
20246;DHT22;10281;54.406;18.556;2023-06-22T01:10:39;19.10;99.90
20246;DHT22;10281;54.406;18.556;2023-06-22T01:13:13;19.10;99.90
20246;DHT22;10281;54.406;18.556;2023-06-22T01:15:44;19.10;99.90
20246;DHT22;10281;54.406;18.556;2023-06-22T01:18:09;19.10;99.90
20246;DHT22;10281;54.406;18.556;2023-06-22T01:20:37;19.10;99.90
20246;DHT22;10281;54.406;18.556;2023-06-22T01:23:26;19.10;99.90
20246;DHT22;10281;54.406;18.556;2023-06-22T01:26:12;19.00;99.90
20246;DHT22;10281;54.406;18.556;2023-06-22T01:28:43;18.90;99.90
20246;DHT22;10281;54.406;18.556;2023-06-22T01:31:13;18.90;99.90
20246;DHT22;10281;54.406;18.556;2023-06-22T01:33:42;18.80;99.90
20246;DHT22;10281;54.406;18.556;2023-06-22T01:36:10;18.80;99.90
20246;DHT22;10281;54.406;18.556;2023-06-22T01:38:38;18.80;99.90
20246;DHT22;10281;54.406;18.556;2023-06-22T01:41:05;18.80;99.90
20246;DHT22;10281;54.406;18.556;2023-06-22T01:43:32;18.80;99.90
20246;DHT22;10281;54.406;18.556;2023-06-22T01:46:01;18.70;99.90
20246;DHT22;10281;54.406;18.556;2023-06-22T01:48:28;18.70;99.90
20246;DHT22;10281;54.406;18.556;2023-06-22T01:50:56;18.70;99.90
20246;DHT22;10281;54.406;18.556;2023-06-22T01:53:25;18.70;99.90
20246;DHT22;10281;54.406;18.556;2023-06-22T01:55:52;18.60;99.90
20246;DHT22;10281;54.406;18.556;2023-06-22T01:58:20;18.60;99.90
20246;DHT22;10281;54.406;18.556;2023-06-22T02:00:56;18.60;99.90
20246;DHT22;10281;54.406;18.556;2023-06-22T02:03:26;18.50;99.90
20246;DHT22;10281;54.406;18.556;2023-06-22T02:05:56;18.50;99.90
20246;DHT22;10281;54.406;18.556;2023-06-22T02:08:28;18.50;99.90
20246;DHT22;10281;54.406;18.556;2023-06-22T02:10:55;18.50;99.90
20246;DHT22;10281;54.406;18.556;2023-06-22T02:13:24;18.50;99.90
20246;DHT22;10281;54.406;18.556;2023-06-22T02:15:51;18.50;99.90
20246;DHT22;10281;54.406;18.556;2023-06-22T02:18:18;18.40;99.90
20246;DHT22;10281;54.406;18.556;2023-06-22T02:20:46;18.40;99.90
20246;DHT22;10281;54.406;18.556;2023-06-22T02:23:12;18.40;99.90
20246;DHT22;10281;54.406;18.556;2023-06-22T02:25:39;18.40;99.90
20246;DHT22;10281;54.406;18.556;2023-06-22T02:28:06;18.40;99.90
20246;DHT22;10281;54.406;18.556;2023-06-22T02:30:32;18.40;99.90
20246;DHT22;10281;54.406;18.556;2023-06-22T02:32:59;18.40;99.90
20246;DHT22;10281;54.406;18.556;2023-06-22T02:35:27;18.40;99.90
20246;DHT22;10281;54.406;18.556;2023-06-22T02:37:56;18.30;99.90
20246;DHT22;10281;54.406;18.556;2023-06-22T02:40:22;18.30;99.90
20246;DHT22;10281;54.406;18.556;2023-06-22T02:42:49;18.30;99.90
20246;DHT22;10281;54.406;18.556;2023-06-22T02:45:15;18.30;99.90
20246;DHT22;10281;54.406;18.556;2023-06-22T02:47:42;18.30;99.90
20246;DHT22;10281;54.406;18.556;2023-06-22T02:50:09;18.30;99.90
20246;DHT22;10281;54.406;18.556;2023-06-22T02:52:36;18.20;99.90
20246;DHT22;10281;54.406;18.556;2023-06-22T02:55:05;18.30;99.90
20246;DHT22;10281;54.406;18.556;2023-06-22T02:57:33;18.30;99.90
20246;DHT22;10281;54.406;18.556;2023-06-22T03:00:02;18.30;99.90
20246;DHT22;10281;54.406;18.556;2023-06-22T03:02:28;18.30;99.90
20246;DHT22;10281;54.406;18.556;2023-06-22T03:04:55;18.30;99.90
20246;DHT22;10281;54.406;18.556;2023-06-22T03:07:22;18.40;99.90
20246;DHT22;10281;54.406;18.556;2023-06-22T03:09:48;18.40;99.90
20246;DHT22;10281;54.406;18.556;2023-06-22T03:12:15;18.40;99.90
20246;DHT22;10281;54.406;18.556;2023-06-22T03:14:42;18.40;99.90
20246;DHT22;10281;54.406;18.556;2023-06-22T03:17:09;18.50;99.90
20246;DHT22;10281;54.406;18.556;2023-06-22T03:19:37;18.50;99.90
20246;DHT22;10281;54.406;18.556;2023-06-22T03:22:04;18.50;99.90
20246;DHT22;10281;54.406;18.556;2023-06-22T03:24:31;18.50;99.90
20246;DHT22;10281;54.406;18.556;2023-06-22T03:26:57;18.60;99.90
20246;DHT22;10281;54.406;18.556;2023-06-22T03:29:24;18.70;99.90
20246;DHT22;10281;54.406;18.556;2023-06-22T03:31:51;18.70;99.90
20246;DHT22;10281;54.406;18.556;2023-06-22T03:34:17;18.80;99.90
20246;DHT22;10281;54.406;18.556;2023-06-22T03:36:44;18.80;99.90
20246;DHT22;10281;54.406;18.556;2023-06-22T03:39:11;18.80;99.90
20246;DHT22;10281;54.406;18.556;2023-06-22T03:41:38;18.90;99.90
20246;DHT22;10281;54.406;18.556;2023-06-22T03:44:04;18.90;99.90
20246;DHT22;10281;54.406;18.556;2023-06-22T03:46:31;19.00;99.90
20246;DHT22;10281;54.406;18.556;2023-06-22T03:48:58;19.10;99.90
20246;DHT22;10281;54.406;18.556;2023-06-22T03:51:24;19.10;99.90
20246;DHT22;10281;54.406;18.556;2023-06-22T03:53:51;19.10;99.90
20246;DHT22;10281;54.406;18.556;2023-06-22T03:56:17;19.10;99.90
20246;DHT22;10281;54.406;18.556;2023-06-22T03:58:46;19.20;99.90
20246;DHT22;10281;54.406;18.556;2023-06-22T04:01:13;19.30;99.90
20246;DHT22;10281;54.406;18.556;2023-06-22T04:03:40;19.30;99.90
20246;DHT22;10281;54.406;18.556;2023-06-22T04:06:07;19.30;99.90
20246;DHT22;10281;54.406;18.556;2023-06-22T04:08:34;19.30;99.90
20246;DHT22;10281;54.406;18.556;2023-06-22T04:11:01;19.30;99.90
20246;DHT22;10281;54.406;18.556;2023-06-22T04:13:27;19.30;99.90
20246;DHT22;10281;54.406;18.556;2023-06-22T04:15:54;19.40;99.90
20246;DHT22;10281;54.406;18.556;2023-06-22T04:18:21;19.50;99.90
20246;DHT22;10281;54.406;18.556;2023-06-22T04:20:48;19.60;99.90
20246;DHT22;10281;54.406;18.556;2023-06-22T04:23:14;19.70;99.90
20246;DHT22;10281;54.406;18.556;2023-06-22T04:25:41;19.80;99.90
20246;DHT22;10281;54.406;18.556;2023-06-22T04:28:07;19.90;99.90
20246;DHT22;10281;54.406;18.556;2023-06-22T04:30:36;20.00;99.90
20246;DHT22;10281;54.406;18.556;2023-06-22T04:33:05;20.00;99.90
20246;DHT22;10281;54.406;18.556;2023-06-22T04:35:31;20.20;99.90
20246;DHT22;10281;54.406;18.556;2023-06-22T04:37:58;20.30;99.90
20246;DHT22;10281;54.406;18.556;2023-06-22T04:40:25;20.30;99.90
20246;DHT22;10281;54.406;18.556;2023-06-22T04:42:51;20.30;99.90
20246;DHT22;10281;54.406;18.556;2023-06-22T04:45:20;20.30;99.90
20246;DHT22;10281;54.406;18.556;2023-06-22T04:47:47;20.10;99.90
20246;DHT22;10281;54.406;18.556;2023-06-22T04:50:14;20.10;99.90
20246;DHT22;10281;54.406;18.556;2023-06-22T04:52:41;20.10;99.90
20246;DHT22;10281;54.406;18.556;2023-06-22T04:55:07;20.00;99.90
20246;DHT22;10281;54.406;18.556;2023-06-22T04:57:34;20.10;99.90
20246;DHT22;10281;54.406;18.556;2023-06-22T05:00:02;20.10;99.90
20246;DHT22;10281;54.406;18.556;2023-06-22T05:02:45;20.00;99.90
20246;DHT22;10281;54.406;18.556;2023-06-22T05:05:13;20.00;99.90
20246;DHT22;10281;54.406;18.556;2023-06-22T05:07:42;20.10;99.90
20246;DHT22;10281;54.406;18.556;2023-06-22T05:10:10;20.10;99.90
20246;DHT22;10281;54.406;18.556;2023-06-22T05:12:38;20.10;99.90
20246;DHT22;10281;54.406;18.556;2023-06-22T05:15:07;20.20;99.90
20246;DHT22;10281;54.406;18.556;2023-06-22T05:17:34;20.10;99.90
20246;DHT22;10281;54.406;18.556;2023-06-22T05:20:01;20.20;99.90
20246;DHT22;10281;54.406;18.556;2023-06-22T05:22:30;20.30;99.90
20246;DHT22;10281;54.406;18.556;2023-06-22T05:24:57;20.30;99.90
20246;DHT22;10281;54.406;18.556;2023-06-22T05:27:24;20.50;99.90
20246;DHT22;10281;54.406;18.556;2023-06-22T05:29:50;20.60;99.90
20246;DHT22;10281;54.406;18.556;2023-06-22T05:32:17;20.60;99.90
20246;DHT22;10281;54.406;18.556;2023-06-22T05:34:44;20.40;99.90
20246;DHT22;10281;54.406;18.556;2023-06-22T05:37:11;20.40;99.90
20246;DHT22;10281;54.406;18.556;2023-06-22T05:39:38;20.40;99.90
20246;DHT22;10281;54.406;18.556;2023-06-22T05:42:05;20.50;99.90
20246;DHT22;10281;54.406;18.556;2023-06-22T05:44:32;20.30;99.90
20246;DHT22;10281;54.406;18.556;2023-06-22T05:46:59;20.40;99.90
20246;DHT22;10281;54.406;18.556;2023-06-22T05:49:26;20.40;99.90
20246;DHT22;10281;54.406;18.556;2023-06-22T05:51:56;20.30;99.90
20246;DHT22;10281;54.406;18.556;2023-06-22T05:54:22;20.40;99.90
20246;DHT22;10281;54.406;18.556;2023-06-22T05:56:49;20.50;99.90
20246;DHT22;10281;54.406;18.556;2023-06-22T05:59:15;20.50;99.90
20246;DHT22;10281;54.406;18.556;2023-06-22T06:01:42;20.60;99.90
20246;DHT22;10281;54.406;18.556;2023-06-22T06:04:09;20.60;99.90
20246;DHT22;10281;54.406;18.556;2023-06-22T06:06:35;20.70;99.90
20246;DHT22;10281;54.406;18.556;2023-06-22T06:09:04;20.60;99.90
20246;DHT22;10281;54.406;18.556;2023-06-22T06:11:31;20.60;99.90
20246;DHT22;10281;54.406;18.556;2023-06-22T06:13:57;20.50;99.90
20246;DHT22;10281;54.406;18.556;2023-06-22T06:16:24;20.60;99.90
20246;DHT22;10281;54.406;18.556;2023-06-22T06:18:50;20.60;99.90
20246;DHT22;10281;54.406;18.556;2023-06-22T06:21:19;20.60;99.90
20246;DHT22;10281;54.406;18.556;2023-06-22T06:23:46;20.90;99.90
20246;DHT22;10281;54.406;18.556;2023-06-22T06:26:13;21.10;99.90
20246;DHT22;10281;54.406;18.556;2023-06-22T06:28:43;21.10;99.90
20246;DHT22;10281;54.406;18.556;2023-06-22T06:31:09;21.30;99.90
20246;DHT22;10281;54.406;18.556;2023-06-22T06:33:38;21.40;99.90
20246;DHT22;10281;54.406;18.556;2023-06-22T06:36:05;21.50;99.90
20246;DHT22;10281;54.406;18.556;2023-06-22T06:38:33;21.50;99.90
20246;DHT22;10281;54.406;18.556;2023-06-22T06:41:00;21.50;99.90
20246;DHT22;10281;54.406;18.556;2023-06-22T06:43:27;21.50;99.90
20246;DHT22;10281;54.406;18.556;2023-06-22T06:45:53;21.50;99.90
20246;DHT22;10281;54.406;18.556;2023-06-22T06:48:20;21.60;99.90
20246;DHT22;10281;54.406;18.556;2023-06-22T06:50:46;21.60;99.90
20246;DHT22;10281;54.406;18.556;2023-06-22T06:53:13;21.60;99.90
20246;DHT22;10281;54.406;18.556;2023-06-22T06:55:40;21.60;99.90
20246;DHT22;10281;54.406;18.556;2023-06-22T06:58:06;21.60;99.90
20246;DHT22;10281;54.406;18.556;2023-06-22T07:00:35;21.70;99.90
20246;DHT22;10281;54.406;18.556;2023-06-22T07:03:02;21.80;99.90
20246;DHT22;10281;54.406;18.556;2023-06-22T07:05:29;21.70;99.90
20246;DHT22;10281;54.406;18.556;2023-06-22T07:07:56;21.70;99.90
20246;DHT22;10281;54.406;18.556;2023-06-22T07:10:23;21.70;99.90
20246;DHT22;10281;54.406;18.556;2023-06-22T07:12:49;21.70;99.90
20246;DHT22;10281;54.406;18.556;2023-06-22T07:15:16;21.70;99.90
20246;DHT22;10281;54.406;18.556;2023-06-22T07:17:43;21.80;99.90
20246;DHT22;10281;54.406;18.556;2023-06-22T07:20:10;21.80;99.90
20246;DHT22;10281;54.406;18.556;2023-06-22T07:22:38;21.90;99.90
20246;DHT22;10281;54.406;18.556;2023-06-22T07:25:06;21.90;99.90
20246;DHT22;10281;54.406;18.556;2023-06-22T07:27:38;22.00;99.90
20246;DHT22;10281;54.406;18.556;2023-06-22T07:30:07;22.10;99.90
20246;DHT22;10281;54.406;18.556;2023-06-22T07:32:34;22.10;99.90
20246;DHT22;10281;54.406;18.556;2023-06-22T07:35:01;22.10;99.90
20246;DHT22;10281;54.406;18.556;2023-06-22T07:37:28;22.20;99.90
20246;DHT22;10281;54.406;18.556;2023-06-22T07:39:55;22.20;99.90
20246;DHT22;10281;54.406;18.556;2023-06-22T07:42:25;22.30;99.90
20246;DHT22;10281;54.406;18.556;2023-06-22T07:44:53;22.30;99.90
20246;DHT22;10281;54.406;18.556;2023-06-22T07:47:20;22.30;99.90
20246;DHT22;10281;54.406;18.556;2023-06-22T07:49:49;22.20;99.90
20246;DHT22;10281;54.406;18.556;2023-06-22T07:52:16;22.30;99.90
20246;DHT22;10281;54.406;18.556;2023-06-22T07:54:42;22.40;99.90
20246;DHT22;10281;54.406;18.556;2023-06-22T07:57:09;22.50;99.90
20246;DHT22;10281;54.406;18.556;2023-06-22T07:59:36;22.60;99.90
20246;DHT22;10281;54.406;18.556;2023-06-22T08:02:04;22.70;99.90
20246;DHT22;10281;54.406;18.556;2023-06-22T08:04:31;22.80;99.90
20246;DHT22;10281;54.406;18.556;2023-06-22T08:06:59;22.90;99.90
20246;DHT22;10281;54.406;18.556;2023-06-22T08:09:28;22.90;99.90
20246;DHT22;10281;54.406;18.556;2023-06-22T08:11:55;23.00;99.90
20246;DHT22;10281;54.406;18.556;2023-06-22T08:14:24;23.10;99.90
20246;DHT22;10281;54.406;18.556;2023-06-22T08:16:51;23.10;99.90
20246;DHT22;10281;54.406;18.556;2023-06-22T08:19:18;22.90;99.90
20246;DHT22;10281;54.406;18.556;2023-06-22T08:21:44;22.90;99.90
20246;DHT22;10281;54.406;18.556;2023-06-22T08:24:11;22.80;99.90
20246;DHT22;10281;54.406;18.556;2023-06-22T08:26:38;22.80;99.90
20246;DHT22;10281;54.406;18.556;2023-06-22T08:29:05;22.80;99.90
20246;DHT22;10281;54.406;18.556;2023-06-22T08:31:32;22.80;99.90
20246;DHT22;10281;54.406;18.556;2023-06-22T08:34:00;23.00;99.90
20246;DHT22;10281;54.406;18.556;2023-06-22T08:36:26;23.10;99.90
20246;DHT22;10281;54.406;18.556;2023-06-22T08:38:58;23.20;99.90
20246;DHT22;10281;54.406;18.556;2023-06-22T08:41:27;23.30;99.90
20246;DHT22;10281;54.406;18.556;2023-06-22T08:43:53;23.40;99.90
20246;DHT22;10281;54.406;18.556;2023-06-22T08:46:20;23.40;99.90
20246;DHT22;10281;54.406;18.556;2023-06-22T08:48:49;23.50;99.90
20246;DHT22;10281;54.406;18.556;2023-06-22T08:51:16;23.60;99.90
20246;DHT22;10281;54.406;18.556;2023-06-22T08:53:43;23.70;99.90
20246;DHT22;10281;54.406;18.556;2023-06-22T08:56:11;23.80;99.90
20246;DHT22;10281;54.406;18.556;2023-06-22T08:58:37;23.80;99.90
20246;DHT22;10281;54.406;18.556;2023-06-22T09:01:04;23.90;99.90
20246;DHT22;10281;54.406;18.556;2023-06-22T09:03:31;24.00;99.90
20246;DHT22;10281;54.406;18.556;2023-06-22T09:05:59;24.00;99.90
20246;DHT22;10281;54.406;18.556;2023-06-22T09:08:25;24.00;99.90
20246;DHT22;10281;54.406;18.556;2023-06-22T09:10:52;24.10;99.00
20246;DHT22;10281;54.406;18.556;2023-06-22T09:13:19;24.00;97.60
20246;DHT22;10281;54.406;18.556;2023-06-22T09:15:45;24.00;98.20
20246;DHT22;10281;54.406;18.556;2023-06-22T09:18:13;24.00;98.00
20246;DHT22;10281;54.406;18.556;2023-06-22T09:20:40;24.00;98.90
20246;DHT22;10281;54.406;18.556;2023-06-22T09:23:06;24.00;98.60
20246;DHT22;10281;54.406;18.556;2023-06-22T09:25:33;24.10;98.30
20246;DHT22;10281;54.406;18.556;2023-06-22T09:27:59;24.20;97.70
20246;DHT22;10281;54.406;18.556;2023-06-22T09:30:26;24.00;98.10
20246;DHT22;10281;54.406;18.556;2023-06-22T09:32:53;24.00;98.60
20246;DHT22;10281;54.406;18.556;2023-06-22T09:35:20;24.00;99.30
20246;DHT22;10281;54.406;18.556;2023-06-22T09:37:46;24.10;99.70
20246;DHT22;10281;54.406;18.556;2023-06-22T09:40:13;24.10;98.60
20246;DHT22;10281;54.406;18.556;2023-06-22T09:42:42;24.10;98.80
20246;DHT22;10281;54.406;18.556;2023-06-22T09:45:09;24.10;99.90
20246;DHT22;10281;54.406;18.556;2023-06-22T09:47:36;24.20;99.90
20246;DHT22;10281;54.406;18.556;2023-06-22T09:50:03;24.20;99.30
20246;DHT22;10281;54.406;18.556;2023-06-22T09:52:30;24.30;99.80
20246;DHT22;10281;54.406;18.556;2023-06-22T09:54:57;24.30;99.90
20246;DHT22;10281;54.406;18.556;2023-06-22T09:57:24;24.30;99.90
20246;DHT22;10281;54.406;18.556;2023-06-22T09:59:50;24.30;99.90
20246;DHT22;10281;54.406;18.556;2023-06-22T10:02:17;24.40;99.40
20246;DHT22;10281;54.406;18.556;2023-06-22T10:04:43;24.40;99.90
20246;DHT22;10281;54.406;18.556;2023-06-22T10:07:10;24.50;99.30
20246;DHT22;10281;54.406;18.556;2023-06-22T10:09:37;24.50;99.10
20246;DHT22;10281;54.406;18.556;2023-06-22T10:12:03;24.50;99.00
20246;DHT22;10281;54.406;18.556;2023-06-22T10:14:30;24.50;99.40
20246;DHT22;10281;54.406;18.556;2023-06-22T10:16:57;24.60;99.70
20246;DHT22;10281;54.406;18.556;2023-06-22T10:19:23;24.60;99.00
20246;DHT22;10281;54.406;18.556;2023-06-22T10:21:50;24.70;99.50
20246;DHT22;10281;54.406;18.556;2023-06-22T10:24:17;24.80;99.50
20246;DHT22;10281;54.406;18.556;2023-06-22T10:26:44;24.80;97.40
20246;DHT22;10281;54.406;18.556;2023-06-22T10:29:11;24.90;98.40
20246;DHT22;10281;54.406;18.556;2023-06-22T10:31:37;25.00;98.00
20246;DHT22;10281;54.406;18.556;2023-06-22T10:34:04;25.10;98.60
20246;DHT22;10281;54.406;18.556;2023-06-22T10:36:31;25.10;96.90
20246;DHT22;10281;54.406;18.556;2023-06-22T10:38:57;25.10;96.20
20246;DHT22;10281;54.406;18.556;2023-06-22T10:41:25;25.10;96.90
20246;DHT22;10281;54.406;18.556;2023-06-22T10:43:52;25.20;96.60
20246;DHT22;10281;54.406;18.556;2023-06-22T10:46:18;25.30;96.80
20246;DHT22;10281;54.406;18.556;2023-06-22T10:48:45;25.30;96.20
20246;DHT22;10281;54.406;18.556;2023-06-22T10:51:12;25.50;96.80
20246;DHT22;10281;54.406;18.556;2023-06-22T10:53:38;25.70;97.00
20246;DHT22;10281;54.406;18.556;2023-06-22T10:56:05;25.70;96.50
20246;DHT22;10281;54.406;18.556;2023-06-22T10:58:31;25.60;94.50
20246;DHT22;10281;54.406;18.556;2023-06-22T11:00:58;25.50;94.60
20246;DHT22;10281;54.406;18.556;2023-06-22T11:03:25;25.60;95.40
20246;DHT22;10281;54.406;18.556;2023-06-22T11:05:51;25.70;95.50
20246;DHT22;10281;54.406;18.556;2023-06-22T11:08:18;25.80;94.70
20246;DHT22;10281;54.406;18.556;2023-06-22T11:10:44;25.80;94.40
20246;DHT22;10281;54.406;18.556;2023-06-22T11:13:11;25.70;92.60
20246;DHT22;10281;54.406;18.556;2023-06-22T11:15:38;25.70;92.70
20246;DHT22;10281;54.406;18.556;2023-06-22T11:18:05;25.80;92.70
20246;DHT22;10281;54.406;18.556;2023-06-22T11:20:33;25.80;92.30
20246;DHT22;10281;54.406;18.556;2023-06-22T11:23:02;25.80;91.70
20246;DHT22;10281;54.406;18.556;2023-06-22T11:25:29;25.80;91.90
20246;DHT22;10281;54.406;18.556;2023-06-22T11:27:55;25.80;92.00
20246;DHT22;10281;54.406;18.556;2023-06-22T11:30:22;25.80;92.20
20246;DHT22;10281;54.406;18.556;2023-06-22T11:32:49;25.80;91.70
20246;DHT22;10281;54.406;18.556;2023-06-22T11:35:15;25.80;92.20
20246;DHT22;10281;54.406;18.556;2023-06-22T11:37:42;25.80;92.90
20246;DHT22;10281;54.406;18.556;2023-06-22T11:40:10;25.80;94.50
20246;DHT22;10281;54.406;18.556;2023-06-22T11:42:36;25.80;96.40
20246;DHT22;10281;54.406;18.556;2023-06-22T11:45:05;25.60;96.80
20246;DHT22;10281;54.406;18.556;2023-06-22T11:47:31;25.50;97.40
20246;DHT22;10281;54.406;18.556;2023-06-22T11:49:58;25.40;97.60
20246;DHT22;10281;54.406;18.556;2023-06-22T11:52:25;25.20;97.90
20246;DHT22;10281;54.406;18.556;2023-06-22T11:54:53;25.10;98.20
20246;DHT22;10281;54.406;18.556;2023-06-22T11:57:19;25.00;98.90
20246;DHT22;10281;54.406;18.556;2023-06-22T11:59:46;24.80;98.70
20246;DHT22;10281;54.406;18.556;2023-06-22T12:02:13;24.70;99.30
20246;DHT22;10281;54.406;18.556;2023-06-22T12:04:39;24.60;99.30
20246;DHT22;10281;54.406;18.556;2023-06-22T12:07:06;24.60;99.30
20246;DHT22;10281;54.406;18.556;2023-06-22T12:09:32;24.70;99.60
20246;DHT22;10281;54.406;18.556;2023-06-22T12:11:59;24.80;99.70
20246;DHT22;10281;54.406;18.556;2023-06-22T12:14:25;24.80;99.90
20246;DHT22;10281;54.406;18.556;2023-06-22T12:16:52;24.80;99.80
20246;DHT22;10281;54.406;18.556;2023-06-22T12:19:19;24.90;99.90
20246;DHT22;10281;54.406;18.556;2023-06-22T12:21:45;24.80;99.90
20246;DHT22;10281;54.406;18.556;2023-06-22T12:24:12;24.70;99.90
20246;DHT22;10281;54.406;18.556;2023-06-22T12:26:38;24.80;99.90
20246;DHT22;10281;54.406;18.556;2023-06-22T12:29:05;24.70;99.90
20246;DHT22;10281;54.406;18.556;2023-06-22T12:31:31;24.70;99.90
20246;DHT22;10281;54.406;18.556;2023-06-22T12:33:58;24.70;99.90
20246;DHT22;10281;54.406;18.556;2023-06-22T12:36:25;24.80;99.90
20246;DHT22;10281;54.406;18.556;2023-06-22T12:38:51;24.80;99.90
20246;DHT22;10281;54.406;18.556;2023-06-22T12:41:18;24.70;99.90
20246;DHT22;10281;54.406;18.556;2023-06-22T12:43:45;24.70;99.90
20246;DHT22;10281;54.406;18.556;2023-06-22T12:46:11;24.60;99.90
20246;DHT22;10281;54.406;18.556;2023-06-22T12:48:38;24.60;99.90
20246;DHT22;10281;54.406;18.556;2023-06-22T12:51:07;24.60;99.90
20246;DHT22;10281;54.406;18.556;2023-06-22T12:53:35;24.60;99.90
20246;DHT22;10281;54.406;18.556;2023-06-22T12:56:02;24.50;99.90
20246;DHT22;10281;54.406;18.556;2023-06-22T12:58:28;24.50;99.90
20246;DHT22;10281;54.406;18.556;2023-06-22T13:00:55;24.50;99.90
20246;DHT22;10281;54.406;18.556;2023-06-22T13:03:21;24.50;99.90
20246;DHT22;10281;54.406;18.556;2023-06-22T13:05:50;24.40;99.90
20246;DHT22;10281;54.406;18.556;2023-06-22T13:08:16;24.40;99.90
20246;DHT22;10281;54.406;18.556;2023-06-22T13:10:43;24.40;99.90
20246;DHT22;10281;54.406;18.556;2023-06-22T13:13:09;24.30;99.90
20246;DHT22;10281;54.406;18.556;2023-06-22T13:15:36;24.20;99.90
20246;DHT22;10281;54.406;18.556;2023-06-22T13:18:03;24.00;99.90
20246;DHT22;10281;54.406;18.556;2023-06-22T13:20:29;24.00;99.90
20246;DHT22;10281;54.406;18.556;2023-06-22T13:22:56;24.00;99.90
20246;DHT22;10281;54.406;18.556;2023-06-22T13:25:23;24.10;99.90
20246;DHT22;10281;54.406;18.556;2023-06-22T13:27:51;24.00;99.90
20246;DHT22;10281;54.406;18.556;2023-06-22T13:30:18;24.10;99.90
20246;DHT22;10281;54.406;18.556;2023-06-22T13:32:45;24.20;99.90
20246;DHT22;10281;54.406;18.556;2023-06-22T13:35:12;24.10;99.90
20246;DHT22;10281;54.406;18.556;2023-06-22T13:37:38;24.10;99.90
20246;DHT22;10281;54.406;18.556;2023-06-22T13:40:06;24.10;99.90
20246;DHT22;10281;54.406;18.556;2023-06-22T13:42:33;24.20;99.90
20246;DHT22;10281;54.406;18.556;2023-06-22T13:45:00;24.20;99.90
20246;DHT22;10281;54.406;18.556;2023-06-22T13:47:28;24.20;99.90
20246;DHT22;10281;54.406;18.556;2023-06-22T13:49:55;24.10;99.90
20246;DHT22;10281;54.406;18.556;2023-06-22T13:52:22;24.00;99.90
20246;DHT22;10281;54.406;18.556;2023-06-22T13:54:49;24.00;99.90
20246;DHT22;10281;54.406;18.556;2023-06-22T13:57:15;24.00;99.90
20246;DHT22;10281;54.406;18.556;2023-06-22T13:59:42;24.00;99.90
20246;DHT22;10281;54.406;18.556;2023-06-22T14:02:08;24.00;99.90
20246;DHT22;10281;54.406;18.556;2023-06-22T14:04:35;23.90;99.90
20246;DHT22;10281;54.406;18.556;2023-06-22T14:07:02;23.80;99.90
20246;DHT22;10281;54.406;18.556;2023-06-22T14:09:28;23.80;99.90
20246;DHT22;10281;54.406;18.556;2023-06-22T14:11:55;23.70;99.90
20246;DHT22;10281;54.406;18.556;2023-06-22T14:14:22;23.80;99.90
20246;DHT22;10281;54.406;18.556;2023-06-22T14:16:48;23.70;99.90
20246;DHT22;10281;54.406;18.556;2023-06-22T14:19:18;23.70;99.90
20246;DHT22;10281;54.406;18.556;2023-06-22T14:21:44;23.70;99.90
20246;DHT22;10281;54.406;18.556;2023-06-22T14:24:11;23.70;99.90
20246;DHT22;10281;54.406;18.556;2023-06-22T14:26:37;23.70;99.90
20246;DHT22;10281;54.406;18.556;2023-06-22T14:29:04;23.60;99.90
20246;DHT22;10281;54.406;18.556;2023-06-22T14:31:31;23.70;99.90
20246;DHT22;10281;54.406;18.556;2023-06-22T14:33:58;23.70;99.90
20246;DHT22;10281;54.406;18.556;2023-06-22T14:36:25;23.70;99.90
20246;DHT22;10281;54.406;18.556;2023-06-22T14:38:51;23.60;99.90
20246;DHT22;10281;54.406;18.556;2023-06-22T14:41:18;23.60;99.90
20246;DHT22;10281;54.406;18.556;2023-06-22T14:43:47;23.70;99.90
20246;DHT22;10281;54.406;18.556;2023-06-22T14:46:17;23.60;99.90
20246;DHT22;10281;54.406;18.556;2023-06-22T14:48:44;23.50;99.90
20246;DHT22;10281;54.406;18.556;2023-06-22T14:51:12;23.50;99.90
20246;DHT22;10281;54.406;18.556;2023-06-22T14:53:38;23.50;99.90
20246;DHT22;10281;54.406;18.556;2023-06-22T14:56:05;23.40;99.90
20246;DHT22;10281;54.406;18.556;2023-06-22T14:58:32;23.50;99.90
20246;DHT22;10281;54.406;18.556;2023-06-22T15:01:00;23.60;99.90
20246;DHT22;10281;54.406;18.556;2023-06-22T15:03:26;23.50;99.90
20246;DHT22;10281;54.406;18.556;2023-06-22T15:05:55;23.60;99.90
20246;DHT22;10281;54.406;18.556;2023-06-22T15:08:22;23.50;99.90
20246;DHT22;10281;54.406;18.556;2023-06-22T15:10:49;23.50;99.90
20246;DHT22;10281;54.406;18.556;2023-06-22T15:13:15;23.50;99.90
20246;DHT22;10281;54.406;18.556;2023-06-22T15:15:44;23.50;99.90